createdAt,value
2019-01-27T00:00:56.855Z,6.36
2019-01-27T00:01:56.601Z,6.4
2019-01-27T00:02:56.827Z,6.4
2019-01-27T00:03:56.819Z,6.37
2019-01-27T00:04:56.802Z,6.4
2019-01-27T00:05:56.549Z,6.34
2019-01-27T00:06:56.776Z,6.3
2019-01-27T00:07:56.764Z,6.4
2019-01-27T00:08:56.752Z,6.36
2019-01-27T00:09:56.741Z,6.36
2019-01-27T00:10:56.760Z,6.41
2019-01-27T00:11:56.711Z,6.38
2019-01-27T00:12:56.708Z,6.41
2019-01-27T00:13:56.684Z,6.36
2019-01-27T00:14:56.670Z,6.31
2019-01-27T00:15:56.656Z,6.28
2019-01-27T00:16:56.643Z,6.38
2019-01-27T00:17:56.630Z,6.33
2019-01-27T00:18:56.619Z,6.31
2019-01-27T00:19:56.603Z,6.33
2019-01-27T00:20:56.590Z,6.3
2019-01-27T00:21:56.585Z,6.31
2019-01-27T00:22:56.562Z,6.31
2019-01-27T00:23:56.549Z,6.19
2019-01-27T00:24:56.535Z,6.3
2019-01-27T00:25:56.536Z,6.31
2019-01-27T00:26:56.511Z,6.22
2019-01-27T00:27:56.496Z,6.25
2019-01-27T00:28:56.483Z,6.21
2019-01-27T00:29:56.469Z,6.17
2019-01-27T00:30:56.455Z,6.21
2019-01-27T00:31:56.480Z,6.17
2019-01-27T00:32:56.437Z,6.25
2019-01-27T00:33:56.418Z,6.31
2019-01-27T00:34:56.411Z,6.22
2019-01-27T00:35:56.391Z,6.25
2019-01-27T00:36:56.373Z,6.15
2019-01-27T00:37:56.361Z,6.22
2019-01-27T00:38:56.349Z,6.21
2019-01-27T00:39:56.335Z,6.27
2019-01-27T00:40:56.324Z,6.22
2019-01-27T00:41:56.315Z,6.25
2019-01-27T00:42:56.296Z,6.22
2019-01-27T00:43:56.278Z,6.3
2019-01-27T00:44:56.264Z,6.27
2019-01-27T00:45:56.255Z,6.27
2019-01-27T00:46:56.239Z,6.28
2019-01-27T00:47:56.232Z,6.3
2019-01-27T00:48:56.213Z,6.28
2019-01-27T00:49:56.198Z,6.31
2019-01-27T00:50:56.186Z,6.25
2019-01-27T00:51:56.175Z,6.36
2019-01-27T00:52:56.176Z,6.3
2019-01-27T00:53:56.154Z,6.22
2019-01-27T00:54:56.130Z,6.19
2019-01-27T00:55:56.125Z,6.25
2019-01-27T00:56:56.104Z,6.21
2019-01-27T00:57:56.098Z,6.22
2019-01-27T00:58:56.079Z,6.22
2019-01-27T00:59:56.070Z,6.15
2019-01-27T01:00:56.060Z,6.25
2019-01-27T01:01:56.044Z,6.25
2019-01-27T01:02:56.029Z,6.21
2019-01-27T01:03:56.012Z,6.3
2019-01-27T01:04:56.000Z,6.25
2019-01-27T01:05:55.983Z,6.27
2019-01-27T01:06:55.971Z,6.27
2019-01-27T01:07:55.957Z,6.19
2019-01-27T01:08:55.944Z,6.19
2019-01-27T01:09:55.929Z,6.18
2019-01-27T01:10:55.917Z,6.17
2019-01-27T01:11:55.905Z,6.17
2019-01-27T01:12:55.890Z,6.09
2019-01-27T01:13:55.875Z,6.09
2019-01-27T01:14:55.863Z,6.03
2019-01-27T01:15:55.848Z,6.12
2019-01-27T01:16:55.837Z,6.06
2019-01-27T01:17:55.830Z,6.04
2019-01-27T01:18:55.812Z,6.12
2019-01-27T01:19:55.801Z,6.09
2019-01-27T01:20:55.781Z,6.09
2019-01-27T01:21:55.769Z,6.12
2019-01-27T01:22:55.756Z,6.01
2019-01-27T01:23:55.755Z,6.04
2019-01-27T01:24:55.725Z,5.97
2019-01-27T01:25:55.722Z,6.03
2019-01-27T01:26:55.701Z,6.09
2019-01-27T01:27:55.687Z,6.11
2019-01-27T01:28:55.672Z,6.08
2019-01-27T01:29:55.661Z,5.99
2019-01-27T01:30:55.653Z,6
2019-01-27T01:31:55.631Z,5.97
2019-01-27T01:32:55.379Z,5.91
2019-01-27T01:33:55.608Z,5.93
2019-01-27T01:34:55.592Z,5.86
2019-01-27T01:35:55.582Z,5.82
2019-01-27T01:36:55.568Z,5.83
2019-01-27T01:37:55.551Z,5.83
2019-01-27T01:38:55.538Z,5.79
2019-01-27T01:39:55.530Z,5.79
2019-01-27T01:40:55.507Z,5.82
2019-01-27T01:41:55.497Z,5.78
2019-01-27T01:42:55.488Z,5.75
2019-01-27T01:43:55.469Z,5.75
2019-01-27T01:44:55.461Z,5.83
2019-01-27T01:45:55.444Z,5.76
2019-01-27T01:46:55.431Z,5.76
2019-01-27T01:47:55.424Z,5.78
2019-01-27T01:48:55.410Z,5.78
2019-01-27T01:49:55.390Z,5.82
2019-01-27T01:50:55.371Z,5.78
2019-01-27T01:51:55.366Z,5.76
2019-01-27T01:52:55.344Z,5.75
2019-01-27T01:53:55.331Z,5.79
2019-01-27T01:54:55.320Z,5.76
2019-01-27T01:55:55.308Z,5.75
2019-01-27T01:56:55.291Z,5.71
2019-01-27T01:57:55.278Z,5.72
2019-01-27T01:58:55.265Z,5.72
2019-01-27T01:59:55.250Z,5.67
2019-01-27T02:00:55.235Z,5.67
2019-01-27T02:01:55.222Z,5.57
2019-01-27T02:02:55.209Z,5.57
2019-01-27T02:03:55.200Z,5.54
2019-01-27T02:04:55.181Z,5.64
2019-01-27T02:05:55.170Z,5.58
2019-01-27T02:06:55.153Z,5.64
2019-01-27T02:07:55.138Z,5.58
2019-01-27T02:08:55.127Z,5.53
2019-01-27T02:09:55.111Z,5.58
2019-01-27T02:10:55.099Z,5.51
2019-01-27T02:11:55.087Z,5.51
2019-01-27T02:12:55.078Z,5.48
2019-01-27T02:13:55.054Z,5.43
2019-01-27T02:14:55.043Z,5.45
2019-01-27T02:15:55.033Z,5.48
2019-01-27T02:16:55.015Z,5.56
2019-01-27T02:17:55.043Z,5.61
2019-01-27T02:18:54.988Z,5.58
2019-01-27T02:19:54.972Z,5.54
2019-01-27T02:20:54.960Z,5.56
2019-01-27T02:21:54.947Z,5.53
2019-01-27T02:22:54.932Z,5.54
2019-01-27T02:23:54.920Z,5.63
2019-01-27T02:24:54.903Z,5.45
2019-01-27T02:25:54.889Z,5.46
2019-01-27T02:26:54.875Z,5.46
2019-01-27T02:27:54.861Z,5.45
2019-01-27T02:28:54.853Z,5.43
2019-01-27T02:29:54.834Z,5.43
2019-01-27T02:30:54.820Z,5.45
2019-01-27T02:31:54.812Z,5.57
2019-01-27T02:32:54.791Z,5.45
2019-01-27T02:33:54.777Z,5.43
2019-01-27T02:34:54.766Z,5.39
2019-01-27T02:35:54.752Z,5.4
2019-01-27T02:36:54.735Z,5.28
2019-01-27T02:37:54.722Z,5.27
2019-01-27T02:38:54.708Z,5.31
2019-01-27T02:39:54.704Z,5.24
2019-01-27T02:40:54.216Z,5.18
2019-01-27T02:41:54.667Z,5.25
2019-01-27T02:42:54.653Z,5.17
2019-01-27T02:43:54.640Z,5.2
2019-01-27T02:44:54.621Z,5.15
2019-01-27T02:45:54.622Z,5.25
2019-01-27T02:46:54.598Z,5.1
2019-01-27T02:47:54.585Z,5.22
2019-01-27T02:48:54.568Z,5.09
2019-01-27T02:49:54.558Z,5.24
2019-01-27T02:50:54.543Z,5.2
2019-01-27T02:51:54.524Z,5.18
2019-01-27T02:52:54.508Z,5.18
2019-01-27T02:53:54.509Z,5.21
2019-01-27T02:54:54.485Z,5.13
2019-01-27T02:55:54.467Z,5.21
2019-01-27T02:56:54.455Z,5.07
2019-01-27T02:57:54.437Z,5.2
2019-01-27T02:58:54.430Z,5.09
2019-01-27T02:59:55.255Z,5.2
2019-01-27T03:00:54.399Z,5.04
2019-01-27T03:01:54.383Z,5.12
2019-01-27T03:02:54.390Z,5.2
2019-01-27T03:03:54.352Z,5.12
2019-01-27T03:04:54.340Z,5.07
2019-01-27T03:05:54.328Z,5.13
2019-01-27T03:06:54.314Z,5.15
2019-01-27T03:07:54.297Z,5.1
2019-01-27T03:08:54.293Z,5.12
2019-01-27T03:09:54.269Z,5.09
2019-01-27T03:10:54.256Z,5.07
2019-01-27T03:11:54.244Z,5.02
2019-01-27T03:12:54.226Z,5.02
2019-01-27T03:13:54.210Z,5.07
2019-01-27T03:14:54.196Z,5
2019-01-27T03:15:54.185Z,5.04
2019-01-27T03:16:54.173Z,5.03
2019-01-27T03:17:54.155Z,5.06
2019-01-27T03:18:54.139Z,5.03
2019-01-27T03:19:54.128Z,5.04
2019-01-27T03:20:54.121Z,5.06
2019-01-27T03:21:54.101Z,5.04
2019-01-27T03:22:54.084Z,5.02
2019-01-27T03:23:54.073Z,4.99
2019-01-27T03:24:54.063Z,5.02
2019-01-27T03:25:54.048Z,5.04
2019-01-27T03:26:54.026Z,5.02
2019-01-27T03:27:54.009Z,5.02
2019-01-27T03:28:53.998Z,5.07
2019-01-27T03:29:53.782Z,5.06
2019-01-27T03:30:53.980Z,5.17
2019-01-27T03:31:53.961Z,5.13
2019-01-27T03:32:53.950Z,5.12
2019-01-27T03:33:53.932Z,5.18
2019-01-27T03:34:53.912Z,5.09
2019-01-27T03:35:53.895Z,5.17
2019-01-27T03:36:53.888Z,5.07
2019-01-27T03:37:53.868Z,5.15
2019-01-27T03:38:53.852Z,5.12
2019-01-27T03:39:53.841Z,5.09
2019-01-27T03:40:53.827Z,5.18
2019-01-27T03:41:53.824Z,5.2
2019-01-27T03:42:53.798Z,5.09
2019-01-27T03:43:53.783Z,5.12
2019-01-27T03:44:53.836Z,5.1
2019-01-27T03:45:53.759Z,5.13
2019-01-27T03:46:53.746Z,5.1
2019-01-27T03:47:53.732Z,5.21
2019-01-27T03:48:53.718Z,5.21
2019-01-27T03:49:53.698Z,5.1
2019-01-27T03:50:53.687Z,5.13
2019-01-27T03:51:53.677Z,5.17
2019-01-27T03:52:53.659Z,5.07
2019-01-27T03:53:53.639Z,5.13
2019-01-27T03:54:53.631Z,5.12
2019-01-27T03:55:53.615Z,5.17
2019-01-27T03:56:53.602Z,5.07
2019-01-27T03:57:53.582Z,5.15
2019-01-27T03:58:53.572Z,5.13
2019-01-27T03:59:53.554Z,5.13
2019-01-27T04:00:53.538Z,5.15
2019-01-27T04:01:53.536Z,5.18
2019-01-27T04:02:53.514Z,5.15
2019-01-27T04:03:53.509Z,5.18
2019-01-27T04:04:53.516Z,5.2
2019-01-27T04:05:53.479Z,5.09
2019-01-27T04:06:53.462Z,5.13
2019-01-27T04:07:53.445Z,5.13
2019-01-27T04:08:53.427Z,5.03
2019-01-27T04:09:53.421Z,5.1
2019-01-27T04:10:53.399Z,5.15
2019-01-27T04:11:53.385Z,5.06
2019-01-27T04:12:53.379Z,5.09
2019-01-27T04:13:53.397Z,5
2019-01-27T04:14:53.347Z,4.99
2019-01-27T04:15:53.328Z,5.03
2019-01-27T04:16:53.314Z,4.96
2019-01-27T04:17:53.300Z,4.94
2019-01-27T04:18:53.048Z,4.99
2019-01-27T04:19:53.270Z,4.94
2019-01-27T04:20:53.256Z,4.96
2019-01-27T04:21:53.248Z,4.96
2019-01-27T04:22:53.299Z,4.99
2019-01-27T04:23:53.216Z,4.96
2019-01-27T04:24:53.199Z,4.96
2019-01-27T04:25:53.199Z,4.92
2019-01-27T04:26:53.167Z,4.89
2019-01-27T04:27:53.229Z,4.91
2019-01-27T04:28:53.230Z,4.84
2019-01-27T04:29:53.132Z,4.92
2019-01-27T04:30:53.115Z,4.92
2019-01-27T04:31:52.860Z,4.89
2019-01-27T04:32:53.091Z,4.91
2019-01-27T04:33:53.074Z,4.88
2019-01-27T04:34:53.055Z,4.92
2019-01-27T04:35:53.040Z,4.84
2019-01-27T04:36:53.041Z,4.91
2019-01-27T04:37:53.013Z,4.94
2019-01-27T04:38:52.998Z,4.91
2019-01-27T04:39:53.002Z,4.92
2019-01-27T04:40:52.969Z,4.92
2019-01-27T04:41:52.951Z,4.92
2019-01-27T04:42:52.950Z,4.88
2019-01-27T04:43:52.923Z,4.88
2019-01-27T04:44:52.917Z,4.92
2019-01-27T04:45:53.147Z,4.94
2019-01-27T04:46:52.900Z,4.96
2019-01-27T04:47:52.643Z,4.92
2019-01-27T04:48:52.865Z,4.91
2019-01-27T04:49:52.840Z,4.96
2019-01-27T04:50:52.831Z,4.94
2019-01-27T04:51:52.816Z,4.99
2019-01-27T04:52:52.828Z,5.02
2019-01-27T04:53:52.787Z,5.02
2019-01-27T04:54:52.777Z,4.99
2019-01-27T04:55:52.760Z,4.99
2019-01-27T04:56:52.743Z,4.99
2019-01-27T04:57:52.734Z,5.07
2019-01-27T04:58:52.713Z,4.97
2019-01-27T04:59:52.692Z,5
2019-01-27T05:00:52.692Z,5.09
2019-01-27T05:01:52.670Z,5.04
2019-01-27T05:02:52.651Z,5.04
2019-01-27T05:03:52.640Z,5.07
2019-01-27T05:04:52.623Z,5.1
2019-01-27T05:05:52.610Z,5.1
2019-01-27T05:06:52.595Z,5.09
2019-01-27T05:07:52.580Z,5.1
2019-01-27T05:08:52.567Z,5.13
2019-01-27T05:09:52.553Z,5.12
2019-01-27T05:10:52.538Z,5.06
2019-01-27T05:11:52.526Z,5.02
2019-01-27T05:12:52.514Z,5.06
2019-01-27T05:13:52.502Z,5.09
2019-01-27T05:14:52.493Z,5
2019-01-27T05:15:52.469Z,4.99
2019-01-27T05:16:52.450Z,5.13
2019-01-27T05:17:52.435Z,5.09
2019-01-27T05:18:52.422Z,5.06
2019-01-27T05:19:52.412Z,5.07
2019-01-27T05:20:52.394Z,5
2019-01-27T05:21:52.385Z,5.02
2019-01-27T05:22:52.368Z,5.02
2019-01-27T05:23:52.371Z,4.97
2019-01-27T05:24:52.344Z,5.04
2019-01-27T05:25:52.325Z,5.02
2019-01-27T05:26:52.320Z,4.99
2019-01-27T05:27:52.144Z,5.03
2019-01-27T05:28:52.277Z,5.02
2019-01-27T05:29:52.265Z,4.99
2019-01-27T05:30:52.252Z,5
2019-01-27T05:31:52.249Z,5.02
2019-01-27T05:32:52.222Z,4.94
2019-01-27T05:33:52.210Z,4.92
2019-01-27T05:34:52.201Z,4.96
2019-01-27T05:35:52.185Z,4.97
2019-01-27T05:36:52.175Z,4.86
2019-01-27T05:37:52.165Z,4.89
2019-01-27T05:38:52.147Z,4.77
2019-01-27T05:39:52.127Z,4.91
2019-01-27T05:40:52.109Z,4.82
2019-01-27T05:41:52.094Z,4.84
2019-01-27T05:42:52.097Z,4.84
2019-01-27T05:43:52.064Z,4.84
2019-01-27T05:44:52.050Z,4.82
2019-01-27T05:45:52.040Z,4.82
2019-01-27T05:46:52.022Z,4.86
2019-01-27T05:47:52.014Z,4.73
2019-01-27T05:48:51.999Z,4.75
2019-01-27T05:49:51.989Z,4.66
2019-01-27T05:50:51.961Z,4.67
2019-01-27T05:51:51.956Z,4.73
2019-01-27T05:52:51.948Z,4.73
2019-01-27T05:53:51.918Z,4.77
2019-01-27T05:54:51.902Z,4.73
2019-01-27T05:55:51.890Z,4.69
2019-01-27T05:56:58.844Z,4.7
2019-01-27T05:57:51.877Z,4.69
2019-01-27T05:58:51.852Z,4.8
2019-01-27T05:59:51.601Z,4.72
2019-01-27T06:00:51.817Z,4.67
2019-01-27T06:01:51.806Z,4.67
2019-01-27T06:02:51.791Z,4.67
2019-01-27T06:03:51.782Z,4.77
2019-01-27T06:04:51.765Z,4.8
2019-01-27T06:05:51.774Z,4.67
2019-01-27T06:06:51.729Z,4.67
2019-01-27T06:07:51.723Z,4.73
2019-01-27T06:08:51.702Z,4.77
2019-01-27T06:09:51.694Z,4.65
2019-01-27T06:10:51.675Z,4.67
2019-01-27T06:11:51.664Z,4.8
2019-01-27T06:12:51.655Z,4.63
2019-01-27T06:13:51.639Z,4.7
2019-01-27T06:14:51.617Z,4.63
2019-01-27T06:15:51.608Z,4.67
2019-01-27T06:16:51.590Z,4.75
2019-01-27T06:17:51.575Z,4.73
2019-01-27T06:18:51.574Z,4.7
2019-01-27T06:19:51.542Z,4.84
2019-01-27T06:20:51.534Z,4.78
2019-01-27T06:21:51.516Z,4.8
2019-01-27T06:22:51.521Z,4.78
2019-01-27T06:23:51.487Z,4.78
2019-01-27T06:24:51.472Z,4.84
2019-01-27T06:25:51.499Z,4.88
2019-01-27T06:26:51.445Z,4.84
2019-01-27T06:27:51.444Z,4.82
2019-01-27T06:28:51.410Z,4.84
2019-01-27T06:29:51.401Z,4.82
2019-01-27T06:30:51.388Z,4.8
2019-01-27T06:31:51.374Z,4.78
2019-01-27T06:32:51.420Z,4.88
2019-01-27T06:33:51.338Z,4.86
2019-01-27T06:34:51.323Z,4.89
2019-01-27T06:35:51.309Z,4.88
2019-01-27T06:36:51.299Z,4.85
2019-01-27T06:37:51.282Z,4.82
2019-01-27T06:38:51.268Z,4.84
2019-01-27T06:39:51.255Z,4.91
2019-01-27T06:40:51.241Z,4.85
2019-01-27T06:41:51.222Z,4.86
2019-01-27T06:42:51.207Z,4.88
2019-01-27T06:43:51.194Z,4.88
2019-01-27T06:44:51.184Z,4.92
2019-01-27T06:45:51.167Z,4.91
2019-01-27T06:46:51.150Z,4.88
2019-01-27T06:47:51.139Z,4.92
2019-01-27T06:48:51.119Z,4.89
2019-01-27T06:49:51.110Z,4.92
2019-01-27T06:50:51.092Z,4.97
2019-01-27T06:51:51.083Z,4.88
2019-01-27T06:52:51.071Z,4.88
2019-01-27T06:53:51.051Z,4.94
2019-01-27T06:54:51.035Z,4.94
2019-01-27T06:55:51.023Z,4.89
2019-01-27T06:56:51.004Z,4.96
2019-01-27T06:57:51.045Z,4.91
2019-01-27T06:58:50.978Z,4.96
2019-01-27T06:59:50.965Z,4.99
2019-01-27T07:00:50.952Z,4.97
2019-01-27T07:01:50.936Z,4.97
2019-01-27T07:02:50.922Z,5
2019-01-27T07:03:50.908Z,4.99
2019-01-27T07:04:50.893Z,4.97
2019-01-27T07:05:50.877Z,4.97
2019-01-27T07:06:50.862Z,4.97
2019-01-27T07:07:50.846Z,4.94
2019-01-27T07:08:50.837Z,4.99
2019-01-27T07:09:50.820Z,4.97
2019-01-27T07:10:50.803Z,4.96
2019-01-27T07:11:50.791Z,4.91
2019-01-27T07:12:50.776Z,4.96
2019-01-27T07:13:50.761Z,4.94
2019-01-27T07:14:50.747Z,5.02
2019-01-27T07:15:50.733Z,4.97
2019-01-27T07:16:50.718Z,4.97
2019-01-27T07:17:50.708Z,4.96
2019-01-27T07:18:50.689Z,4.97
2019-01-27T07:19:50.676Z,5.04
2019-01-27T07:20:50.661Z,5.02
2019-01-27T07:21:50.654Z,5
2019-01-27T07:22:50.639Z,5.04
2019-01-27T07:23:50.622Z,5.06
2019-01-27T07:24:50.605Z,5.06
2019-01-27T07:25:50.587Z,5.04
2019-01-27T07:26:50.575Z,5.07
2019-01-27T07:27:50.561Z,5.03
2019-01-27T07:28:50.547Z,5.07
2019-01-27T07:29:50.534Z,5.1
2019-01-27T07:30:50.518Z,5.1
2019-01-27T07:31:50.504Z,5.18
2019-01-27T07:32:50.491Z,5.07
2019-01-27T07:33:50.475Z,5.1
2019-01-27T07:34:51.785Z,5.12
2019-01-27T07:35:50.447Z,5.06
2019-01-27T07:36:50.452Z,5.1
2019-01-27T07:37:50.176Z,5.17
2019-01-27T07:38:50.405Z,5.15
2019-01-27T07:39:50.388Z,5.24
2019-01-27T07:40:50.373Z,5.15
2019-01-27T07:41:50.369Z,5.28
2019-01-27T07:42:50.347Z,5.33
2019-01-27T07:43:50.331Z,5.24
2019-01-27T07:44:50.318Z,5.27
2019-01-27T07:45:50.314Z,5.35
2019-01-27T07:46:50.295Z,5.36
2019-01-27T07:47:50.272Z,5.39
2019-01-27T07:48:50.270Z,5.43
2019-01-27T07:49:50.249Z,5.45
2019-01-27T07:50:50.248Z,5.56
2019-01-27T07:51:50.229Z,5.6
2019-01-27T07:52:50.205Z,5.46
2019-01-27T07:53:50.194Z,5.48
2019-01-27T07:54:50.176Z,5.56
2019-01-27T07:55:50.166Z,5.54
2019-01-27T07:56:50.150Z,5.61
2019-01-27T07:57:50.134Z,5.56
2019-01-27T07:58:50.123Z,5.67
2019-01-27T07:59:50.107Z,5.57
2019-01-27T08:00:50.096Z,5.67
2019-01-27T08:01:50.080Z,5.68
2019-01-27T08:02:50.065Z,5.76
2019-01-27T08:03:50.056Z,5.81
2019-01-27T08:04:50.038Z,5.79
2019-01-27T08:05:50.024Z,5.79
2019-01-27T08:06:50.013Z,5.89
2019-01-27T08:07:50.001Z,5.9
2019-01-27T08:08:51.295Z,5.82
2019-01-27T08:09:49.969Z,5.9
2019-01-27T08:10:49.956Z,5.99
2019-01-27T08:11:49.944Z,5.94
2019-01-27T08:12:49.929Z,6
2019-01-27T08:13:49.920Z,5.94
2019-01-27T08:14:49.905Z,6.03
2019-01-27T08:15:49.891Z,6.06
2019-01-27T08:16:49.878Z,6.12
2019-01-27T08:17:49.863Z,6.04
2019-01-27T08:18:49.853Z,6.11
2019-01-27T08:19:49.836Z,6.12
2019-01-27T08:20:49.820Z,6.04
2019-01-27T08:21:49.814Z,6.04
2019-01-27T08:22:49.818Z,6.08
2019-01-27T08:23:49.780Z,6.08
2019-01-27T08:24:49.772Z,6.03
2019-01-27T08:25:49.758Z,6.09
2019-01-27T08:26:49.742Z,5.96
2019-01-27T08:27:49.731Z,6.03
2019-01-27T08:28:49.715Z,6.04
2019-01-27T08:29:49.702Z,6.09
2019-01-27T08:30:49.690Z,6.06
2019-01-27T08:31:49.675Z,6.03
2019-01-27T08:32:49.664Z,6.12
2019-01-27T08:33:49.654Z,6.12
2019-01-27T08:34:49.633Z,6.11
2019-01-27T08:35:49.620Z,6.08
2019-01-27T08:36:49.614Z,6.12
2019-01-27T08:37:49.365Z,6.19
2019-01-27T08:38:49.585Z,6.17
2019-01-27T08:39:49.572Z,6.18
2019-01-27T08:40:49.562Z,6.33
2019-01-27T08:41:49.545Z,6.36
2019-01-27T08:42:49.538Z,6.34
2019-01-27T08:43:49.518Z,6.34
2019-01-27T08:44:49.510Z,6.38
2019-01-27T08:45:49.538Z,6.33
2019-01-27T08:46:49.477Z,6.4
2019-01-27T08:47:49.462Z,6.36
2019-01-27T08:48:49.451Z,6.51
2019-01-27T08:49:49.495Z,6.43
2019-01-27T08:50:49.426Z,6.43
2019-01-27T08:51:49.425Z,6.52
2019-01-27T08:52:49.402Z,6.51
2019-01-27T08:53:49.388Z,6.49
2019-01-27T08:54:49.374Z,6.58
2019-01-27T08:55:49.358Z,6.59
2019-01-27T08:56:49.355Z,6.67
2019-01-27T08:57:49.335Z,6.69
2019-01-27T08:58:49.356Z,6.71
2019-01-27T08:59:49.307Z,6.69
2019-01-27T09:00:49.300Z,6.74
2019-01-27T09:01:49.284Z,6.69
2019-01-27T09:02:49.269Z,6.84
2019-01-27T09:03:49.257Z,6.8
2019-01-27T09:04:49.240Z,6.84
2019-01-27T09:05:49.238Z,6.88
2019-01-27T09:06:49.227Z,6.87
2019-01-27T09:07:49.207Z,6.81
2019-01-27T09:08:49.191Z,6.87
2019-01-27T09:09:49.188Z,6.84
2019-01-27T09:10:49.170Z,6.94
2019-01-27T09:11:49.152Z,6.87
2019-01-27T09:12:49.142Z,6.87
2019-01-27T09:13:49.130Z,6.99
2019-01-27T09:14:49.120Z,6.98
2019-01-27T09:15:49.102Z,6.98
2019-01-27T09:16:49.089Z,6.94
2019-01-27T09:17:49.081Z,7.05
2019-01-27T09:18:49.110Z,7.05
2019-01-27T09:19:49.051Z,6.95
2019-01-27T09:20:49.043Z,6.99
2019-01-27T09:21:49.030Z,6.97
2019-01-27T09:22:49.018Z,6.95
2019-01-27T09:23:49.006Z,6.95
2019-01-27T09:24:48.999Z,7.06
2019-01-27T09:25:48.977Z,7.07
2019-01-27T09:26:48.971Z,7.06
2019-01-27T09:27:48.955Z,7.09
2019-01-27T09:28:48.939Z,7.02
2019-01-27T09:29:48.932Z,7.1
2019-01-27T09:30:48.916Z,7.21
2019-01-27T09:31:48.903Z,7.27
2019-01-27T09:32:48.894Z,7.32
2019-01-27T09:33:48.887Z,7.25
2019-01-27T09:34:48.868Z,7.4
2019-01-27T09:35:48.867Z,7.45
2019-01-27T09:36:48.843Z,7.4
2019-01-27T09:37:48.831Z,7.48
2019-01-27T09:38:48.817Z,7.61
2019-01-27T09:39:48.808Z,7.55
2019-01-27T09:40:48.797Z,7.52
2019-01-27T09:41:48.781Z,7.6
2019-01-27T09:42:48.775Z,7.64
2019-01-27T09:43:48.762Z,7.69
2019-01-27T09:44:48.747Z,7.79
2019-01-27T09:46:05.336Z,7.72
2019-01-27T09:46:48.723Z,7.79
2019-01-27T09:47:48.714Z,7.74
2019-01-27T09:48:48.701Z,7.71
2019-01-27T09:49:48.689Z,7.74
2019-01-27T09:50:48.681Z,7.67
2019-01-27T09:51:48.666Z,7.72
2019-01-27T09:52:48.654Z,7.72
2019-01-27T09:53:48.643Z,7.83
2019-01-27T09:54:48.632Z,7.74
2019-01-27T09:55:48.857Z,7.79
2019-01-27T09:56:48.611Z,7.75
2019-01-27T09:57:48.600Z,7.82
2019-01-27T09:58:48.597Z,7.9
2019-01-27T09:59:48.574Z,7.86
2019-01-27T10:00:48.561Z,7.93
2019-01-27T10:01:48.554Z,7.98
2019-01-27T10:02:48.538Z,8
2019-01-27T10:03:48.525Z,8.02
2019-01-27T10:04:48.516Z,8.08
2019-01-27T10:05:48.504Z,8.15
2019-01-27T10:06:48.502Z,8.12
2019-01-27T10:07:48.487Z,8.26
2019-01-27T10:08:48.473Z,8.3
2019-01-27T10:09:48.462Z,8.4
2019-01-27T10:10:48.454Z,8.44
2019-01-27T10:11:48.442Z,8.47
2019-01-27T10:12:48.428Z,8.45
2019-01-27T10:13:48.419Z,8.45
2019-01-27T10:14:48.401Z,8.45
2019-01-27T10:15:48.391Z,8.41
2019-01-27T10:16:48.384Z,8.47
2019-01-27T10:17:48.372Z,8.48
2019-01-27T10:18:48.129Z,8.47
2019-01-27T10:19:48.348Z,8.48
2019-01-27T10:20:48.339Z,8.45
2019-01-27T10:21:48.326Z,8.48
2019-01-27T10:22:48.317Z,8.41
2019-01-27T10:23:48.302Z,8.48
2019-01-27T10:24:48.294Z,8.52
2019-01-27T10:25:48.283Z,8.44
2019-01-27T10:26:48.277Z,8.47
2019-01-27T10:27:48.264Z,8.48
2019-01-27T10:28:48.250Z,8.48
2019-01-27T10:29:48.246Z,8.47
2019-01-27T10:30:48.231Z,8.45
2019-01-27T10:31:48.219Z,8.44
2019-01-27T10:32:48.211Z,8.45
2019-01-27T10:33:48.199Z,8.45
2019-01-27T10:34:48.184Z,8.52
2019-01-27T10:35:48.177Z,8.38
2019-01-27T10:36:48.169Z,8.52
2019-01-27T10:37:48.154Z,8.62
2019-01-27T10:38:48.148Z,8.76
2019-01-27T10:39:48.130Z,8.76
2019-01-27T10:40:47.880Z,8.77
2019-01-27T10:41:48.107Z,8.81
2019-01-27T10:42:48.098Z,8.73
2019-01-27T10:43:48.086Z,8.83
2019-01-27T10:44:48.074Z,8.77
2019-01-27T10:45:48.068Z,8.79
2019-01-27T10:46:48.057Z,8.76
2019-01-27T10:47:49.269Z,8.83
2019-01-27T10:48:48.032Z,8.81
2019-01-27T10:49:47.782Z,8.91
2019-01-27T10:50:48.010Z,8.84
2019-01-27T10:51:48.005Z,8.76
2019-01-27T10:52:47.994Z,8.81
2019-01-27T10:53:47.981Z,8.91
2019-01-27T10:54:47.980Z,8.8
2019-01-27T10:55:47.959Z,8.81
2019-01-27T10:56:47.950Z,8.79
2019-01-27T10:57:47.946Z,8.79
2019-01-27T10:58:47.924Z,8.86
2019-01-27T10:59:47.914Z,8.7
2019-01-27T11:00:47.905Z,8.71
2019-01-27T11:01:47.891Z,8.71
2019-01-27T11:02:47.879Z,8.71
2019-01-27T11:03:47.871Z,8.76
2019-01-27T11:04:47.859Z,8.68
2019-01-27T11:05:47.849Z,8.73
2019-01-27T11:06:47.849Z,8.79
2019-01-27T11:07:47.824Z,8.7
2019-01-27T11:08:47.821Z,8.68
2019-01-27T11:09:47.803Z,8.8
2019-01-27T11:10:47.798Z,8.71
2019-01-27T11:11:47.787Z,8.62
2019-01-27T11:12:47.772Z,8.7
2019-01-27T11:13:47.763Z,8.63
2019-01-27T11:14:47.749Z,8.59
2019-01-27T11:15:47.995Z,8.63
2019-01-27T11:16:47.728Z,8.61
2019-01-27T11:17:47.724Z,8.62
2019-01-27T11:18:47.707Z,8.61
2019-01-27T11:19:47.693Z,8.61
2019-01-27T11:20:47.848Z,8.63
2019-01-27T11:21:47.681Z,8.55
2019-01-27T11:22:47.661Z,8.58
2019-01-27T11:23:47.658Z,8.68
2019-01-27T11:24:47.636Z,8.65
2019-01-27T11:25:47.627Z,8.63
2019-01-27T11:26:47.373Z,8.58
2019-01-27T11:27:47.605Z,8.63
2019-01-27T11:28:47.592Z,8.61
2019-01-27T11:29:47.584Z,8.56
2019-01-27T11:30:47.570Z,8.7
2019-01-27T11:31:47.563Z,8.68
2019-01-27T11:32:47.560Z,8.68
2019-01-27T11:33:47.538Z,8.66
2019-01-27T11:34:47.526Z,8.7
2019-01-27T11:35:47.517Z,8.83
2019-01-27T11:36:47.554Z,8.81
2019-01-27T11:37:47.492Z,8.79
2019-01-27T11:38:47.482Z,8.8
2019-01-27T11:39:47.480Z,8.91
2019-01-27T11:40:47.459Z,8.83
2019-01-27T11:41:47.454Z,8.94
2019-01-27T11:42:47.440Z,8.89
2019-01-27T11:43:47.424Z,8.94
2019-01-27T11:44:48.446Z,8.98
2019-01-27T11:45:47.407Z,8.86
2019-01-27T11:46:47.390Z,8.96
2019-01-27T11:47:47.383Z,9.04
2019-01-27T11:48:47.372Z,9.01
2019-01-27T11:49:47.359Z,9.1
2019-01-27T11:50:47.352Z,9.17
2019-01-27T11:51:47.339Z,9.18
2019-01-27T11:52:47.325Z,9.2
2019-01-27T11:53:47.316Z,9.24
2019-01-27T11:54:47.339Z,9.14
2019-01-27T11:55:47.293Z,9.11
2019-01-27T11:56:47.287Z,9.13
2019-01-27T11:57:47.281Z,9.04
2019-01-27T11:58:47.265Z,9.11
2019-01-27T11:59:47.253Z,9.02
2019-01-27T12:00:47.241Z,8.99
2019-01-27T12:01:47.232Z,9.02
2019-01-27T12:02:51.458Z,8.95
2019-01-27T12:03:47.208Z,8.92
2019-01-27T12:04:47.201Z,8.87
2019-01-27T12:05:47.188Z,8.98
2019-01-27T12:06:47.176Z,9.01
2019-01-27T12:07:46.954Z,9.01
2019-01-27T12:08:47.166Z,9.02
2019-01-27T12:09:47.148Z,9.11
2019-01-27T12:10:47.134Z,9.08
2019-01-27T12:11:47.124Z,9.04
2019-01-27T12:12:47.114Z,8.98
2019-01-27T12:13:47.101Z,9.02
2019-01-27T12:14:47.090Z,9.02
2019-01-27T12:15:47.078Z,9.08
2019-01-27T12:16:47.071Z,9.17
2019-01-27T12:17:47.057Z,9.21
2019-01-27T12:18:47.048Z,9.2
2019-01-27T12:19:47.042Z,9.29
2019-01-27T12:20:47.025Z,9.32
2019-01-27T12:21:47.020Z,9.46
2019-01-27T12:22:47.005Z,9.39
2019-01-27T12:23:46.995Z,9.48
2019-01-27T12:24:46.988Z,9.43
2019-01-27T12:25:46.973Z,9.46
2019-01-27T12:26:46.965Z,9.43
2019-01-27T12:27:46.953Z,9.48
2019-01-27T12:28:46.944Z,9.47
2019-01-27T12:29:46.930Z,9.4
2019-01-27T12:30:46.677Z,9.5
2019-01-27T12:31:46.952Z,9.51
2019-01-27T12:32:46.903Z,9.53
2019-01-27T12:33:46.890Z,9.5
2019-01-27T12:34:46.882Z,9.51
2019-01-27T12:35:46.872Z,9.4
2019-01-27T12:36:46.865Z,9.47
2019-01-27T12:37:46.848Z,9.36
2019-01-27T12:38:46.837Z,9.21
2019-01-27T12:39:46.879Z,9.28
2019-01-27T12:40:46.818Z,9.23
2019-01-27T12:41:46.990Z,9.2
2019-01-27T12:42:46.852Z,9.18
2019-01-27T12:43:46.788Z,9.21
2019-01-27T12:44:46.809Z,9.15
2019-01-27T12:45:48.422Z,9.18
2019-01-27T12:46:46.757Z,9.13
2019-01-27T12:47:46.753Z,9.1
2019-01-27T12:48:46.497Z,9.15
2019-01-27T12:49:46.728Z,9.1
2019-01-27T12:50:46.718Z,9.15
2019-01-27T12:51:47.205Z,9.02
2019-01-27T12:52:46.696Z,9.1
2019-01-27T12:53:46.683Z,9.15
2019-01-27T12:54:46.671Z,9.14
2019-01-27T12:55:46.667Z,9.08
2019-01-27T12:56:46.655Z,9.13
2019-01-27T12:57:46.638Z,9.04
2019-01-27T12:58:46.632Z,9.18
2019-01-27T12:59:46.625Z,9.21
2019-01-27T13:00:46.609Z,9.11
2019-01-27T13:01:46.599Z,9.05
2019-01-27T13:02:46.592Z,9.05
2019-01-27T13:03:46.582Z,9.02
2019-01-27T13:04:46.570Z,9.02
2019-01-27T13:05:46.556Z,9.08
2019-01-27T13:06:46.550Z,8.96
2019-01-27T13:07:46.549Z,9.04
2019-01-27T13:08:46.530Z,8.95
2019-01-27T13:09:46.513Z,9.1
2019-01-27T13:10:46.508Z,9.1
2019-01-27T13:11:46.501Z,9.15
2019-01-27T13:12:46.486Z,9.23
2019-01-27T13:13:46.470Z,9.21
2019-01-27T13:14:46.459Z,9.28
2019-01-27T13:15:46.460Z,9.32
2019-01-27T13:16:46.438Z,9.38
2019-01-27T13:17:46.428Z,9.47
2019-01-27T13:18:46.422Z,9.5
2019-01-27T13:19:53.550Z,9.53
2019-01-27T13:20:46.696Z,9.64
2019-01-27T13:21:46.385Z,9.58
2019-01-27T13:22:46.384Z,9.57